sensor_id;sensor_type;location;lat;lon;timestamp;pressure;altitude;pressure_sealevel;temperature;humidity
28665;BME280;15850;47.524;7.814;2022-08-04T00:02:02;97534.63;;;19.98;92.98
28665;BME280;15850;47.524;7.814;2022-08-04T00:04:32;97538.09;;;20.09;92.62
28665;BME280;15850;47.524;7.814;2022-08-04T00:07:03;97535.38;;;20.02;92.62
28665;BME280;15850;47.524;7.814;2022-08-04T00:09:38;97509.91;;;19.66;94.39
28665;BME280;15850;47.524;7.814;2022-08-04T00:12:10;97534.22;;;19.96;92.91
28665;BME280;15850;47.524;7.814;2022-08-04T00:14:47;97534.19;;;20.00;95.26
28665;BME280;15850;47.524;7.814;2022-08-04T00:17:14;97502.81;;;19.68;95.02
28665;BME280;15850;47.524;7.814;2022-08-04T00:19:43;97525.66;;;19.76;95.76
28665;BME280;15850;47.524;7.814;2022-08-04T00:22:12;97530.78;;;19.78;97.94
28665;BME280;15850;47.524;7.814;2022-08-04T00:24:40;97520.88;;;19.87;94.91
28665;BME280;15850;47.524;7.814;2022-08-04T00:27:06;97526.03;;;19.82;96.03
28665;BME280;15850;47.524;7.814;2022-08-04T00:29:33;97525.28;;;19.74;96.68
28665;BME280;15850;47.524;7.814;2022-08-04T00:32:00;97525.25;;;19.78;96.26
28665;BME280;15850;47.524;7.814;2022-08-04T00:34:29;97499.66;;;19.63;95.47
28665;BME280;15850;47.524;7.814;2022-08-04T00:36:56;97507.16;;;19.66;97.67
28665;BME280;15850;47.524;7.814;2022-08-04T00:39:23;97521.81;;;19.48;99.09
28665;BME280;15850;47.524;7.814;2022-08-04T00:42:09;97500.56;;;19.38;98.68
28665;BME280;15850;47.524;7.814;2022-08-04T00:44:57;97425.88;;;18.86;97.91
28665;BME280;15850;47.524;7.814;2022-08-04T00:47:38;97522.16;;;19.58;96.84
28665;BME280;15850;47.524;7.814;2022-08-04T00:50:10;97515.09;;;19.49;98.43
28665;BME280;15850;47.524;7.814;2022-08-04T00:52:47;97519.41;;;19.65;97.03
28665;BME280;15850;47.524;7.814;2022-08-04T00:55:40;97518.63;;;19.54;100.00
28665;BME280;15850;47.524;7.814;2022-08-04T00:58:22;97502.91;;;19.36;100.00
28665;BME280;15850;47.524;7.814;2022-08-04T01:00:57;97508.44;;;19.36;100.00
28665;BME280;15850;47.524;7.814;2022-08-04T01:03:36;97483.69;;;19.18;100.00
28665;BME280;15850;47.524;7.814;2022-08-04T01:06:11;97489.59;;;19.20;100.00
28665;BME280;15850;47.524;7.814;2022-08-04T01:08:50;97532.44;;;19.43;100.00
28665;BME280;15850;47.524;7.814;2022-08-04T01:11:30;97526.59;;;19.34;100.00
28665;BME280;15850;47.524;7.814;2022-08-04T01:14:16;97490.38;;;19.14;100.00
28665;BME280;15850;47.524;7.814;2022-08-04T01:16:48;97464.00;;;19.09;100.00
28665;BME280;15850;47.524;7.814;2022-08-04T01:19:39;97530.09;;;19.45;100.00
28665;BME280;15850;47.524;7.814;2022-08-04T01:22:17;97531.28;;;19.40;100.00
28665;BME280;15850;47.524;7.814;2022-08-04T01:25:11;97528.53;;;19.33;100.00
28665;BME280;15850;47.524;7.814;2022-08-04T01:27:59;97484.50;;;19.12;100.00
28665;BME280;15850;47.524;7.814;2022-08-04T01:30:32;97527.38;;;19.34;100.00
28665;BME280;15850;47.524;7.814;2022-08-04T01:33:02;97455.03;;;18.80;100.00
28665;BME280;15850;47.524;7.814;2022-08-04T01:35:28;97520.69;;;19.32;100.00
28665;BME280;15850;47.524;7.814;2022-08-04T01:38:01;97468.38;;;18.96;100.00
28665;BME280;15850;47.524;7.814;2022-08-04T01:40:32;97390.50;;;18.45;100.00
28665;BME280;15850;47.524;7.814;2022-08-04T01:43:00;97510.06;;;19.16;100.00
28665;BME280;15850;47.524;7.814;2022-08-04T01:45:28;97506.91;;;19.14;100.00
28665;BME280;15850;47.524;7.814;2022-08-04T01:47:56;97525.81;;;19.19;100.00
28665;BME280;15850;47.524;7.814;2022-08-04T01:50:23;97483.38;;;18.84;100.00
28665;BME280;15850;47.524;7.814;2022-08-04T01:52:52;97520.72;;;19.03;100.00
28665;BME280;15850;47.524;7.814;2022-08-04T01:55:18;97522.72;;;18.99;100.00
28665;BME280;15850;47.524;7.814;2022-08-04T01:57:47;97519.19;;;18.91;100.00
28665;BME280;15850;47.524;7.814;2022-08-04T02:00:15;97522.31;;;18.93;100.00
28665;BME280;15850;47.524;7.814;2022-08-04T02:02:41;97505.03;;;18.86;100.00
28665;BME280;15850;47.524;7.814;2022-08-04T02:05:10;97529.41;;;18.87;100.00
28665;BME280;15850;47.524;7.814;2022-08-04T02:07:49;97522.34;;;18.75;100.00
28665;BME280;15850;47.524;7.814;2022-08-04T02:10:22;97239.13;;;16.95;100.00
28665;BME280;15850;47.524;7.814;2022-08-04T02:13:03;97529.81;;;18.68;100.00
28665;BME280;15850;47.524;7.814;2022-08-04T02:15:42;97505.00;;;18.57;100.00
28665;BME280;15850;47.524;7.814;2022-08-04T02:18:17;97517.59;;;18.69;100.00
28665;BME280;15850;47.524;7.814;2022-08-04T02:20:47;97519.59;;;18.68;100.00
28665;BME280;15850;47.524;7.814;2022-08-04T02:23:15;97388.19;;;17.83;100.00
28665;BME280;15850;47.524;7.814;2022-08-04T02:25:46;97460.97;;;18.25;100.00
28665;BME280;15850;47.524;7.814;2022-08-04T02:28:21;97521.16;;;18.66;100.00
28665;BME280;15850;47.524;7.814;2022-08-04T02:31:03;97528.63;;;18.69;100.00
28665;BME280;15850;47.524;7.814;2022-08-04T02:33:35;97480.22;;;18.50;100.00
28665;BME280;15850;47.524;7.814;2022-08-04T02:36:04;97441.69;;;18.25;100.00
28665;BME280;15850;47.524;7.814;2022-08-04T02:38:46;97493.59;;;18.55;100.00
28665;BME280;15850;47.524;7.814;2022-08-04T02:41:19;97414.13;;;17.89;100.00
28665;BME280;15850;47.524;7.814;2022-08-04T02:43:47;97519.59;;;18.58;100.00
28665;BME280;15850;47.524;7.814;2022-08-04T02:46:13;97532.97;;;18.59;100.00
28665;BME280;15850;47.524;7.814;2022-08-04T02:48:42;97537.69;;;18.62;100.00
28665;BME280;15850;47.524;7.814;2022-08-04T02:51:13;97492.03;;;18.33;100.00
28665;BME280;15850;47.524;7.814;2022-08-04T02:53:44;97530.97;;;18.63;100.00
28665;BME280;15850;47.524;7.814;2022-08-04T02:56:10;97380.63;;;17.51;100.00
28665;BME280;15850;47.524;7.814;2022-08-04T02:58:40;97537.28;;;18.46;100.00
28665;BME280;15850;47.524;7.814;2022-08-04T03:01:06;97447.94;;;17.93;100.00
28665;BME280;15850;47.524;7.814;2022-08-04T03:03:38;97517.59;;;18.44;100.00
28665;BME280;15850;47.524;7.814;2022-08-04T03:06:39;97534.94;;;18.55;100.00
28665;BME280;15850;47.524;7.814;2022-08-04T03:09:28;97538.47;;;18.38;100.00
28665;BME280;15850;47.524;7.814;2022-08-04T03:15:28;97539.25;;;18.45;100.00
28665;BME280;15850;47.524;7.814;2022-08-04T03:18:35;97537.66;;;18.34;100.00
28665;BME280;15850;47.524;7.814;2022-08-04T03:21:32;97462.81;;;17.71;100.00
28665;BME280;15850;47.524;7.814;2022-08-04T03:27:40;97529.41;;;18.30;100.00
28665;BME280;15850;47.524;7.814;2022-08-04T03:30:12;97507.72;;;18.11;100.00
28665;BME280;15850;47.524;7.814;2022-08-04T03:33:03;97532.50;;;18.14;100.00
28665;BME280;15850;47.524;7.814;2022-08-04T03:35:35;97532.13;;;18.08;100.00
28665;BME280;15850;47.524;7.814;2022-08-04T03:38:26;97525.78;;;17.97;100.00
28665;BME280;15850;47.524;7.814;2022-08-04T03:41:05;97430.06;;;17.30;100.00
28665;BME280;15850;47.524;7.814;2022-08-04T03:44:05;97510.44;;;17.82;100.00
28665;BME280;15850;47.524;7.814;2022-08-04T03:46:47;97525.00;;;17.93;100.00
28665;BME280;15850;47.524;7.814;2022-08-04T03:49:34;97487.53;;;17.56;100.00
28665;BME280;15850;47.524;7.814;2022-08-04T03:52:08;97534.03;;;17.87;100.00
28665;BME280;15850;47.524;7.814;2022-08-04T04:00:39;97491.00;;;17.39;100.00
28665;BME280;15850;47.524;7.814;2022-08-04T04:06:34;97549.31;;;17.77;100.00
28665;BME280;15850;47.524;7.814;2022-08-04T04:12:39;97461.88;;;17.27;100.00
28665;BME280;15850;47.524;7.814;2022-08-04T04:15:19;97546.22;;;17.82;100.00
28665;BME280;15850;47.524;7.814;2022-08-04T04:18:08;97549.75;;;17.82;100.00
28665;BME280;15850;47.524;7.814;2022-08-04T04:20:55;97546.22;;;17.89;100.00
28665;BME280;15850;47.524;7.814;2022-08-04T04:23:49;97531.63;;;17.78;100.00
28665;BME280;15850;47.524;7.814;2022-08-04T04:26:37;97452.84;;;17.27;100.00
28665;BME280;15850;47.524;7.814;2022-08-04T04:29:19;97524.94;;;17.72;100.00
28665;BME280;15850;47.524;7.814;2022-08-04T04:31:58;97479.25;;;17.49;100.00
28665;BME280;15850;47.524;7.814;2022-08-04T04:34:38;97556.06;;;17.97;100.00
28665;BME280;15850;47.524;7.814;2022-08-04T04:37:16;97520.97;;;17.66;100.00
28665;BME280;15850;47.524;7.814;2022-08-04T04:39:54;97547.44;;;17.95;100.00
28665;BME280;15850;47.524;7.814;2022-08-04T04:42:58;97560.09;;;18.25;100.00
28665;BME280;15850;47.524;7.814;2022-08-04T04:45:33;97561.66;;;18.22;100.00
28665;BME280;15850;47.524;7.814;2022-08-04T04:48:07;97569.13;;;18.29;100.00
28665;BME280;15850;47.524;7.814;2022-08-04T04:50:48;97568.72;;;18.16;100.00
28665;BME280;15850;47.524;7.814;2022-08-04T04:53:22;97522.66;;;17.92;100.00
28665;BME280;15850;47.524;7.814;2022-08-04T04:55:52;97553.41;;;18.26;100.00
28665;BME280;15850;47.524;7.814;2022-08-04T04:58:21;97579.78;;;18.59;100.00
28665;BME280;15850;47.524;7.814;2022-08-04T05:01:05;97546.72;;;18.63;100.00
28665;BME280;15850;47.524;7.814;2022-08-04T05:03:49;97579.44;;;18.96;100.00
28665;BME280;15850;47.524;7.814;2022-08-04T05:06:31;97580.22;;;19.00;100.00
28665;BME280;15850;47.524;7.814;2022-08-04T05:09:11;97579.00;;;19.19;100.00
28665;BME280;15850;47.524;7.814;2022-08-04T05:11:57;97567.19;;;19.22;100.00
28665;BME280;15850;47.524;7.814;2022-08-04T05:14:30;97520.75;;;18.99;100.00
28665;BME280;15850;47.524;7.814;2022-08-04T05:17:02;97585.66;;;19.47;100.00
28665;BME280;15850;47.524;7.814;2022-08-04T05:19:37;97580.13;;;19.51;100.00
28665;BME280;15850;47.524;7.814;2022-08-04T05:22:10;97580.13;;;19.54;100.00
28665;BME280;15850;47.524;7.814;2022-08-04T05:24:40;97593.09;;;19.75;100.00
28665;BME280;15850;47.524;7.814;2022-08-04T05:27:13;97511.16;;;19.43;100.00
28665;BME280;15850;47.524;7.814;2022-08-04T05:29:45;97568.22;;;19.82;100.00
28665;BME280;15850;47.524;7.814;2022-08-04T05:34:43;97462.78;;;19.28;100.00
28665;BME280;15850;47.524;7.814;2022-08-04T05:37:14;97561.03;;;19.95;100.00
28665;BME280;15850;47.524;7.814;2022-08-04T05:39:43;97561.09;;;19.88;100.00
28665;BME280;15850;47.524;7.814;2022-08-04T05:42:10;97597.59;;;20.25;100.00
28665;BME280;15850;47.524;7.814;2022-08-04T05:44:37;97516.97;;;19.81;100.00
28665;BME280;15850;47.524;7.814;2022-08-04T05:47:04;97591.53;;;20.48;100.00
28665;BME280;15850;47.524;7.814;2022-08-04T05:49:31;97551.34;;;20.36;100.00
28665;BME280;15850;47.524;7.814;2022-08-04T05:52:00;97592.50;;;20.79;100.00
28665;BME280;15850;47.524;7.814;2022-08-04T05:54:29;97532.31;;;20.49;100.00
28665;BME280;15850;47.524;7.814;2022-08-04T05:56:57;97588.81;;;21.00;96.43
28665;BME280;15850;47.524;7.814;2022-08-04T05:59:24;97588.34;;;21.05;93.07
28665;BME280;15850;47.524;7.814;2022-08-04T06:01:52;97582.38;;;21.10;91.92
28665;BME280;15850;47.524;7.814;2022-08-04T06:04:20;97561.38;;;21.16;90.38
28665;BME280;15850;47.524;7.814;2022-08-04T06:06:47;97262.56;;;19.38;89.13
28665;BME280;15850;47.524;7.814;2022-08-04T06:09:13;97581.81;;;21.67;87.12
28665;BME280;15850;47.524;7.814;2022-08-04T06:11:42;97584.50;;;21.74;85.33
28665;BME280;15850;47.524;7.814;2022-08-04T06:14:11;97493.19;;;20.99;87.01
28665;BME280;15850;47.524;7.814;2022-08-04T06:16:38;97592.81;;;21.74;86.20
28665;BME280;15850;47.524;7.814;2022-08-04T06:19:06;97587.22;;;21.78;85.81
28665;BME280;15850;47.524;7.814;2022-08-04T06:21:34;97585.66;;;22.08;81.85
28665;BME280;15850;47.524;7.814;2022-08-04T06:24:03;97594.13;;;22.27;80.42
28665;BME280;15850;47.524;7.814;2022-08-04T06:26:33;97586.19;;;22.30;78.51
28665;BME280;15850;47.524;7.814;2022-08-04T06:29:02;97583.00;;;22.31;77.93
28665;BME280;15850;47.524;7.814;2022-08-04T06:31:30;97480.81;;;21.79;75.63
28665;BME280;15850;47.524;7.814;2022-08-04T06:34:00;97592.53;;;22.57;75.49
28665;BME280;15850;47.524;7.814;2022-08-04T06:36:26;97589.28;;;22.62;74.69
28665;BME280;15850;47.524;7.814;2022-08-04T06:38:54;97584.88;;;22.65;74.70
28665;BME280;15850;47.524;7.814;2022-08-04T06:41:20;97549.94;;;22.44;73.90
28665;BME280;15850;47.524;7.814;2022-08-04T06:43:47;97483.72;;;22.26;73.26
28665;BME280;15850;47.524;7.814;2022-08-04T06:46:15;97555.72;;;22.80;72.36
28665;BME280;15850;47.524;7.814;2022-08-04T06:48:41;97553.03;;;23.00;70.29
28665;BME280;15850;47.524;7.814;2022-08-04T06:51:07;97453.66;;;22.48;69.76
28665;BME280;15850;47.524;7.814;2022-08-04T06:53:35;97587.19;;;23.40;69.84
28665;BME280;15850;47.524;7.814;2022-08-04T06:56:09;97587.09;;;23.67;68.07
28665;BME280;15850;47.524;7.814;2022-08-04T06:58:35;97572.63;;;23.56;67.87
28665;BME280;15850;47.524;7.814;2022-08-04T07:01:02;97491.31;;;22.92;68.25
28665;BME280;15850;47.524;7.814;2022-08-04T07:03:30;97561.59;;;23.53;68.84
28665;BME280;15850;47.524;7.814;2022-08-04T07:05:56;97594.47;;;23.98;67.22
28665;BME280;15850;47.524;7.814;2022-08-04T07:08:22;97533.44;;;23.74;67.23
28665;BME280;15850;47.524;7.814;2022-08-04T07:10:48;97446.84;;;23.19;66.88
28665;BME280;15850;47.524;7.814;2022-08-04T07:13:16;97585.09;;;24.28;66.72
28665;BME280;15850;47.524;7.814;2022-08-04T07:15:43;97587.50;;;24.26;66.12
28665;BME280;15850;47.524;7.814;2022-08-04T07:18:09;97587.56;;;24.42;65.91
28665;BME280;15850;47.524;7.814;2022-08-04T07:20:39;97408.75;;;23.40;65.18
28665;BME280;15850;47.524;7.814;2022-08-04T07:23:06;97113.72;;;21.58;64.76
28665;BME280;15850;47.524;7.814;2022-08-04T07:25:33;97537.69;;;24.51;64.47
28665;BME280;15850;47.524;7.814;2022-08-04T07:27:59;97592.53;;;25.00;62.93
28665;BME280;15850;47.524;7.814;2022-08-04T07:30:26;97540.13;;;24.66;64.31
28665;BME280;15850;47.524;7.814;2022-08-04T07:32:53;97572.66;;;25.18;62.56
28665;BME280;15850;47.524;7.814;2022-08-04T07:35:19;97588.41;;;25.24;62.30
28665;BME280;15850;47.524;7.814;2022-08-04T07:37:47;97546.03;;;25.17;62.37
28665;BME280;15850;47.524;7.814;2022-08-04T07:40:13;97391.38;;;24.25;62.66
28665;BME280;15850;47.524;7.814;2022-08-04T07:42:38;97578.13;;;25.67;61.73
28665;BME280;15850;47.524;7.814;2022-08-04T07:45:05;97566.00;;;25.73;61.31
28665;BME280;15850;47.524;7.814;2022-08-04T07:47:31;97571.53;;;25.90;60.80
28665;BME280;15850;47.524;7.814;2022-08-04T07:49:57;97343.53;;;24.63;59.68
28665;BME280;15850;47.524;7.814;2022-08-04T07:52:24;97572.81;;;26.27;59.67
28665;BME280;15850;47.524;7.814;2022-08-04T07:54:52;97576.94;;;26.35;58.61
28665;BME280;15850;47.524;7.814;2022-08-04T07:57:22;97575.72;;;26.62;57.46
28665;BME280;15850;47.524;7.814;2022-08-04T07:59:47;97574.41;;;26.66;56.61
28665;BME280;15850;47.524;7.814;2022-08-04T08:02:13;97488.38;;;26.27;56.26
28665;BME280;15850;47.524;7.814;2022-08-04T08:04:40;97572.56;;;26.85;56.21
28665;BME280;15850;47.524;7.814;2022-08-04T08:07:09;97336.75;;;25.47;55.36
28665;BME280;15850;47.524;7.814;2022-08-04T08:09:36;97489.81;;;26.57;54.81
28665;BME280;15850;47.524;7.814;2022-08-04T08:12:03;97494.50;;;26.60;54.52
28665;BME280;15850;47.524;7.814;2022-08-04T08:14:31;97567.72;;;27.24;54.20
28665;BME280;15850;47.524;7.814;2022-08-04T08:16:58;97562.31;;;27.43;53.18
28665;BME280;15850;47.524;7.814;2022-08-04T08:19:24;97566.72;;;27.53;51.33
28665;BME280;15850;47.524;7.814;2022-08-04T08:21:49;97548.41;;;27.52;51.85
28665;BME280;15850;47.524;7.814;2022-08-04T08:24:15;97557.03;;;27.45;50.83
28665;BME280;15850;47.524;7.814;2022-08-04T08:26:42;97574.53;;;27.58;52.17
28665;BME280;15850;47.524;7.814;2022-08-04T08:29:09;97261.53;;;25.73;51.38
28665;BME280;15850;47.524;7.814;2022-08-04T08:31:35;97466.88;;;27.22;49.25
28665;BME280;15850;47.524;7.814;2022-08-04T08:34:00;97568.84;;;27.83;48.06
28665;BME280;15850;47.524;7.814;2022-08-04T08:36:33;97465.00;;;27.19;47.71
28665;BME280;15850;47.524;7.814;2022-08-04T08:39:05;97567.66;;;27.94;48.32
28665;BME280;15850;47.524;7.814;2022-08-04T08:41:53;97569.47;;;28.09;48.98
28665;BME280;15850;47.524;7.814;2022-08-04T08:47:42;97518.09;;;28.16;46.37
28665;BME280;15850;47.524;7.814;2022-08-04T08:50:46;97583.00;;;28.73;45.03
28665;BME280;15850;47.524;7.814;2022-08-04T08:53:23;97570.25;;;28.72;44.36
28665;BME280;15850;47.524;7.814;2022-08-04T08:56:11;97566.50;;;28.66;43.93
28665;BME280;15850;47.524;7.814;2022-08-04T08:58:59;97569.78;;;28.74;44.77
28665;BME280;15850;47.524;7.814;2022-08-04T09:01:39;97570.59;;;28.84;43.53
28665;BME280;15850;47.524;7.814;2022-08-04T09:04:38;97569.78;;;28.74;42.46
28665;BME280;15850;47.524;7.814;2022-08-04T09:07:36;97562.19;;;28.74;44.38
28665;BME280;15850;47.524;7.814;2022-08-04T09:10:12;97472.59;;;28.34;42.07
28665;BME280;15850;47.524;7.814;2022-08-04T09:12:46;97543.84;;;28.92;41.77
28665;BME280;15850;47.524;7.814;2022-08-04T09:15:18;97561.22;;;29.18;40.83
28665;BME280;15850;47.524;7.814;2022-08-04T09:17:49;97522.09;;;28.96;40.92
28665;BME280;15850;47.524;7.814;2022-08-04T09:20:24;97523.22;;;29.08;39.06
28665;BME280;15850;47.524;7.814;2022-08-04T09:23:02;97556.06;;;29.25;39.86
28665;BME280;15850;47.524;7.814;2022-08-04T09:25:36;97541.13;;;29.19;40.21
28665;BME280;15850;47.524;7.814;2022-08-04T09:28:06;97440.41;;;28.88;38.53
28665;BME280;15850;47.524;7.814;2022-08-04T09:30:39;97563.56;;;29.75;37.92
28665;BME280;15850;47.524;7.814;2022-08-04T09:33:15;97566.06;;;29.63;39.00
28665;BME280;15850;47.524;7.814;2022-08-04T09:35:52;97536.00;;;29.45;39.30
28665;BME280;15850;47.524;7.814;2022-08-04T09:38:25;97557.28;;;29.98;37.36
28665;BME280;15850;47.524;7.814;2022-08-04T09:40:59;97554.84;;;29.82;38.16
28665;BME280;15850;47.524;7.814;2022-08-04T09:43:34;97519.91;;;30.01;37.19
28665;BME280;15850;47.524;7.814;2022-08-04T09:46:04;97539.53;;;30.01;36.23
28665;BME280;15850;47.524;7.814;2022-08-04T09:48:35;97555.41;;;30.13;36.58
28665;BME280;15850;47.524;7.814;2022-08-04T09:51:10;97462.34;;;29.45;36.77
28665;BME280;15850;47.524;7.814;2022-08-04T09:53:48;97552.28;;;30.21;37.81
28665;BME280;15850;47.524;7.814;2022-08-04T09:56:23;97545.41;;;30.22;36.42
28665;BME280;15850;47.524;7.814;2022-08-04T09:59:00;97492.97;;;29.94;33.90
28665;BME280;15850;47.524;7.814;2022-08-04T10:01:29;97506.28;;;30.27;34.51
28665;BME280;15850;47.524;7.814;2022-08-04T10:03:59;97544.97;;;30.56;32.74
28665;BME280;15850;47.524;7.814;2022-08-04T10:06:38;97505.38;;;30.54;30.62
28665;BME280;15850;47.524;7.814;2022-08-04T10:09:16;97509.66;;;30.64;31.21
28665;BME280;15850;47.524;7.814;2022-08-04T10:11:54;97536.25;;;30.87;30.44
28665;BME280;15850;47.524;7.814;2022-08-04T10:14:36;97529.91;;;30.69;31.90
28665;BME280;15850;47.524;7.814;2022-08-04T10:17:14;97515.50;;;30.52;31.41
28665;BME280;15850;47.524;7.814;2022-08-04T10:19:44;97498.22;;;30.53;32.27
28665;BME280;15850;47.524;7.814;2022-08-04T10:22:16;97517.28;;;30.73;32.10
28665;BME280;15850;47.524;7.814;2022-08-04T10:24:55;97512.00;;;30.66;31.45
28665;BME280;15850;47.524;7.814;2022-08-04T10:27:32;97432.88;;;30.19;33.20
28665;BME280;15850;47.524;7.814;2022-08-04T10:30:02;97469.91;;;30.90;33.29
28665;BME280;15850;47.524;7.814;2022-08-04T10:32:33;97511.59;;;31.30;32.53
28665;BME280;15850;47.524;7.814;2022-08-04T10:35:07;97472.00;;;31.04;32.97
28665;BME280;15850;47.524;7.814;2022-08-04T10:37:40;97509.25;;;31.29;33.27
28665;BME280;15850;47.524;7.814;2022-08-04T10:40:11;97501.06;;;31.40;33.34
28665;BME280;15850;47.524;7.814;2022-08-04T10:42:48;97503.69;;;31.44;30.41
28665;BME280;15850;47.524;7.814;2022-08-04T10:45:18;97332.41;;;30.33;30.74
28665;BME280;15850;47.524;7.814;2022-08-04T10:47:51;97478.16;;;31.32;31.65
28665;BME280;15850;47.524;7.814;2022-08-04T10:50:22;97436.97;;;31.29;31.22
28665;BME280;15850;47.524;7.814;2022-08-04T10:52:56;97446.91;;;31.16;30.87
28665;BME280;15850;47.524;7.814;2022-08-04T10:55:30;97486.63;;;31.47;31.47
28665;BME280;15850;47.524;7.814;2022-08-04T10:58:01;97188.97;;;29.77;31.18
28665;BME280;15850;47.524;7.814;2022-08-04T11:00:28;97485.59;;;31.59;31.38
28665;BME280;15850;47.524;7.814;2022-08-04T11:02:58;97473.66;;;31.50;31.43
28665;BME280;15850;47.524;7.814;2022-08-04T11:05:30;97490.13;;;31.72;31.34
28665;BME280;15850;47.524;7.814;2022-08-04T11:08:00;97474.53;;;31.86;31.35
28665;BME280;15850;47.524;7.814;2022-08-04T11:10:29;97460.78;;;31.88;29.34
28665;BME280;15850;47.524;7.814;2022-08-04T11:13:00;97469.88;;;31.97;29.08
28665;BME280;15850;47.524;7.814;2022-08-04T11:15:32;97472.09;;;32.08;29.14
28665;BME280;15850;47.524;7.814;2022-08-04T11:18:04;97467.84;;;32.13;28.60
28665;BME280;15850;47.524;7.814;2022-08-04T11:20:37;97415.19;;;31.83;28.92
28665;BME280;15850;47.524;7.814;2022-08-04T11:23:09;97352.28;;;31.51;28.51
28665;BME280;15850;47.524;7.814;2022-08-04T11:25:54;97472.09;;;32.58;28.21
28665;BME280;15850;47.524;7.814;2022-08-04T11:28:27;97372.97;;;31.83;28.30
28665;BME280;15850;47.524;7.814;2022-08-04T11:31:03;97465.84;;;32.48;27.95
28665;BME280;15850;47.524;7.814;2022-08-04T11:33:37;97476.69;;;32.56;28.35
28665;BME280;15850;47.524;7.814;2022-08-04T11:36:13;97462.03;;;32.51;28.37
28665;BME280;15850;47.524;7.814;2022-08-04T11:38:48;97424.16;;;32.17;28.46
28665;BME280;15850;47.524;7.814;2022-08-04T11:41:20;97434.72;;;32.22;28.80
28665;BME280;15850;47.524;7.814;2022-08-04T11:43:53;97324.09;;;31.81;28.63
28665;BME280;15850;47.524;7.814;2022-08-04T11:46:23;97463.91;;;32.75;28.82
28665;BME280;15850;47.524;7.814;2022-08-04T11:48:57;97467.97;;;32.74;28.98
28665;BME280;15850;47.524;7.814;2022-08-04T11:51:26;97464.59;;;32.90;28.67
28665;BME280;15850;47.524;7.814;2022-08-04T11:53:54;97457.41;;;32.89;29.18
28665;BME280;15850;47.524;7.814;2022-08-04T11:56:20;97453.59;;;33.33;29.36
28665;BME280;15850;47.524;7.814;2022-08-04T11:58:46;97461.38;;;33.18;28.92
28665;BME280;15850;47.524;7.814;2022-08-04T12:01:19;97439.69;;;33.04;29.37
28665;BME280;15850;47.524;7.814;2022-08-04T12:03:57;97421.28;;;32.88;28.77
28665;BME280;15850;47.524;7.814;2022-08-04T12:06:29;97324.50;;;32.44;29.04
28665;BME280;15850;47.524;7.814;2022-08-04T12:09:08;97448.91;;;33.04;28.61
28665;BME280;15850;47.524;7.814;2022-08-04T12:11:51;97427.94;;;33.05;28.10
28665;BME280;15850;47.524;7.814;2022-08-04T12:14:28;97401.34;;;32.71;28.06
28665;BME280;15850;47.524;7.814;2022-08-04T12:16:58;97373.28;;;32.56;29.09
28665;BME280;15850;47.524;7.814;2022-08-04T12:19:31;97448.16;;;33.30;28.90
28665;BME280;15850;47.524;7.814;2022-08-04T12:22:03;97405.56;;;33.22;29.42
28665;BME280;15850;47.524;7.814;2022-08-04T12:24:33;97438.91;;;33.76;28.46
28665;BME280;15850;47.524;7.814;2022-08-04T12:27:06;97393.56;;;33.53;28.63
28665;BME280;15850;47.524;7.814;2022-08-04T12:29:36;97447.94;;;33.85;28.05
28665;BME280;15850;47.524;7.814;2022-08-04T12:32:16;97339.34;;;32.91;28.49
28665;BME280;15850;47.524;7.814;2022-08-04T12:34:48;97386.44;;;33.32;28.63
28665;BME280;15850;47.524;7.814;2022-08-04T12:37:25;97426.44;;;33.88;28.44
28665;BME280;15850;47.524;7.814;2022-08-04T12:40:00;97415.50;;;33.70;27.96
28665;BME280;15850;47.524;7.814;2022-08-04T12:42:33;97424.31;;;33.83;28.27
28665;BME280;15850;47.524;7.814;2022-08-04T12:45:04;97374.50;;;33.74;28.08
28665;BME280;15850;47.524;7.814;2022-08-04T12:47:33;97379.13;;;33.72;27.10
28665;BME280;15850;47.524;7.814;2022-08-04T12:50:01;97305.25;;;33.10;27.58
28665;BME280;15850;47.524;7.814;2022-08-04T12:52:29;97429.28;;;33.94;27.82
28665;BME280;15850;47.524;7.814;2022-08-04T12:54:57;97254.50;;;33.10;27.42
28665;BME280;15850;47.524;7.814;2022-08-04T12:57:24;97180.94;;;32.76;27.84
28665;BME280;15850;47.524;7.814;2022-08-04T12:59:51;97297.44;;;33.51;28.41
28665;BME280;15850;47.524;7.814;2022-08-04T13:02:22;97300.63;;;33.70;26.80
28665;BME280;15850;47.524;7.814;2022-08-04T13:04:49;97409.44;;;34.57;27.51
28665;BME280;15850;47.524;7.814;2022-08-04T13:07:34;97403.84;;;34.63;26.67
28665;BME280;15850;47.524;7.814;2022-08-04T13:10:05;97208.25;;;33.59;26.77
28665;BME280;15850;47.524;7.814;2022-08-04T13:12:36;97251.50;;;33.94;26.88
28665;BME280;15850;47.524;7.814;2022-08-04T13:15:08;97158.50;;;33.56;26.86
28665;BME280;15850;47.524;7.814;2022-08-04T13:17:46;97368.31;;;35.10;26.37
28665;BME280;15850;47.524;7.814;2022-08-04T13:20:13;97137.63;;;33.91;26.49
28665;BME280;15850;47.524;7.814;2022-08-04T13:22:40;96941.69;;;32.56;26.07
28665;BME280;15850;47.524;7.814;2022-08-04T13:25:08;97347.25;;;35.45;26.29
28665;BME280;15850;47.524;7.814;2022-08-04T13:27:37;97382.25;;;35.47;25.09
28665;BME280;15850;47.524;7.814;2022-08-04T13:30:05;97166.66;;;34.03;25.25
28665;BME280;15850;47.524;7.814;2022-08-04T13:32:31;96980.00;;;32.90;25.67
28665;BME280;15850;47.524;7.814;2022-08-04T13:35:00;97073.72;;;33.82;25.50
28665;BME280;15850;47.524;7.814;2022-08-04T13:37:32;97357.03;;;35.94;25.10
28665;BME280;15850;47.524;7.814;2022-08-04T13:39:59;97296.59;;;35.19;25.43
28665;BME280;15850;47.524;7.814;2022-08-04T13:42:27;97232.06;;;35.62;25.02
28665;BME280;15850;47.524;7.814;2022-08-04T13:44:58;97058.91;;;34.16;25.20
28665;BME280;15850;47.524;7.814;2022-08-04T13:47:27;97256.50;;;35.60;24.83
28665;BME280;15850;47.524;7.814;2022-08-04T13:50:22;97058.44;;;34.51;24.05
28665;BME280;15850;47.524;7.814;2022-08-04T13:52:52;97004.63;;;35.18;23.70
28665;BME280;15850;47.524;7.814;2022-08-04T13:55:20;97108.53;;;36.64;22.64